createdAt,value
2019-03-15T00:02:05.623Z,39.40
2019-03-15T00:04:31.633Z,39.30
2019-03-15T00:06:57.583Z,39.30
2019-03-15T00:09:23.557Z,39.40
2019-03-15T00:11:50.155Z,39.30
2019-03-15T00:14:16.115Z,39.40
2019-03-15T00:16:42.064Z,39.30
2019-03-15T00:19:08.036Z,39.40
2019-03-15T00:21:33.979Z,39.40
2019-03-15T00:23:59.934Z,39.30
2019-03-15T00:26:25.982Z,39.30
2019-03-15T00:28:51.913Z,39.40
2019-03-15T00:31:17.857Z,39.40
2019-03-15T00:33:43.785Z,39.40
2019-03-15T00:36:09.736Z,39.40
2019-03-15T00:38:35.680Z,39.40
2019-03-15T00:41:01.635Z,39.50
2019-03-15T00:43:27.570Z,39.40
2019-03-15T00:45:53.536Z,39.40
2019-03-15T00:48:19.488Z,39.40
2019-03-15T00:50:45.450Z,39.40
2019-03-15T00:53:11.401Z,39.40
2019-03-15T00:55:37.349Z,39.40
2019-03-15T00:58:03.308Z,39.40
2019-03-15T01:00:29.245Z,40.00
2019-03-15T01:02:55.210Z,39.50
2019-03-15T01:05:21.156Z,39.40
2019-03-15T01:07:47.105Z,40.00
2019-03-15T01:10:13.047Z,39.50
2019-03-15T01:12:39.004Z,39.40
2019-03-15T01:15:04.976Z,39.50
2019-03-15T01:17:30.922Z,39.50
2019-03-15T01:19:56.884Z,39.50
2019-03-15T01:22:22.852Z,39.40
2019-03-15T01:24:48.820Z,39.50
2019-03-15T01:27:14.775Z,39.50
2019-03-15T01:29:40.746Z,39.50
2019-03-15T01:32:06.679Z,39.50
2019-03-15T01:34:32.637Z,39.50
2019-03-15T01:36:58.673Z,39.60
2019-03-15T01:39:24.737Z,39.60
2019-03-15T01:41:50.697Z,39.40
2019-03-15T01:44:16.675Z,39.40
2019-03-15T01:46:42.623Z,39.40
2019-03-15T01:49:08.697Z,39.50
2019-03-15T01:51:34.717Z,39.50
2019-03-15T01:54:00.654Z,39.40
2019-03-15T01:56:26.624Z,39.60
2019-03-15T01:58:52.569Z,39.50
2019-03-15T02:01:18.553Z,39.70
2019-03-15T02:03:44.519Z,39.50
2019-03-15T02:06:14.544Z,39.50
2019-03-15T02:08:40.497Z,39.50
2019-03-15T02:11:06.434Z,39.50
2019-03-15T02:13:32.411Z,39.60
2019-03-15T02:15:58.449Z,39.60
2019-03-15T02:18:24.407Z,39.60
2019-03-15T02:20:50.411Z,39.60
2019-03-15T02:23:16.466Z,39.60
2019-03-15T02:25:42.453Z,39.50
2019-03-15T02:28:08.391Z,39.50
2019-03-15T02:30:34.599Z,39.50
2019-03-15T02:33:02.135Z,39.50
2019-03-15T02:35:28.542Z,39.60
2019-03-15T02:37:54.535Z,39.60
2019-03-15T02:40:20.475Z,39.60
2019-03-15T02:42:46.425Z,39.50
2019-03-15T02:45:12.934Z,39.50
2019-03-15T02:47:40.915Z,39.60
2019-03-15T02:50:06.967Z,39.50
2019-03-15T02:52:33.011Z,39.70
2019-03-15T02:54:58.960Z,40.20
2019-03-15T02:57:24.906Z,39.50
2019-03-15T02:59:50.853Z,39.50
2019-03-15T03:02:17.628Z,39.40
2019-03-15T03:04:43.585Z,39.40
2019-03-15T03:07:09.626Z,39.50
2019-03-15T03:09:35.585Z,39.50
2019-03-15T03:12:01.545Z,39.50
2019-03-15T03:14:27.597Z,39.60
2019-03-15T03:16:53.582Z,39.50
2019-03-15T03:19:19.546Z,39.50
2019-03-15T03:21:45.506Z,39.40
2019-03-15T03:24:11.458Z,39.50
2019-03-15T03:26:37.530Z,39.40
2019-03-15T03:29:03.591Z,39.40
2019-03-15T03:31:29.642Z,39.40
2019-03-15T03:33:55.593Z,39.40
2019-03-15T03:36:21.660Z,39.30
2019-03-15T03:38:47.624Z,39.40
2019-03-15T03:41:13.587Z,39.40
2019-03-15T03:43:39.557Z,39.50
2019-03-15T03:46:05.509Z,39.40
2019-03-15T03:48:31.457Z,39.40
2019-03-15T03:51:00.098Z,39.50
2019-03-15T03:53:25.273Z,39.40
2019-03-15T03:55:51.698Z,39.40
2019-03-15T03:58:17.877Z,39.40
2019-03-15T04:00:43.837Z,39.30
2019-03-15T04:03:09.787Z,39.40
2019-03-15T04:05:35.748Z,39.30
2019-03-15T04:08:01.729Z,39.30
2019-03-15T04:10:27.760Z,39.20
2019-03-15T04:12:53.723Z,39.30
2019-03-15T04:15:19.741Z,39.30
2019-03-15T04:17:45.693Z,39.20
2019-03-15T04:20:11.670Z,39.20
2019-03-15T04:22:37.621Z,39.30
2019-03-15T04:25:04.775Z,39.20
2019-03-15T04:27:31.528Z,39.30
2019-03-15T04:29:59.445Z,39.20
2019-03-15T04:32:25.496Z,39.20
2019-03-15T04:34:51.435Z,39.20
2019-03-15T04:37:17.405Z,39.30
2019-03-15T04:39:43.361Z,39.20
2019-03-15T04:42:09.488Z,39.20
2019-03-15T04:44:35.543Z,39.20
2019-03-15T04:47:01.486Z,39.20
2019-03-15T04:49:27.416Z,39.20
2019-03-15T04:51:53.680Z,39.20
2019-03-15T04:54:20.534Z,39.30
2019-03-15T04:56:48.519Z,39.20
2019-03-15T04:59:14.472Z,39.20
2019-03-15T05:01:40.537Z,39.20
2019-03-15T05:04:06.605Z,39.20
2019-03-15T05:06:32.553Z,39.20
2019-03-15T05:08:58.536Z,39.20
2019-03-15T05:11:24.869Z,39.20
2019-03-15T05:13:51.072Z,39.20
2019-03-15T05:16:17.036Z,38.70
2019-03-15T05:18:43.058Z,39.20
2019-03-15T05:21:09.146Z,39.30
2019-03-15T05:23:35.205Z,39.20
2019-03-15T05:26:01.149Z,39.30
2019-03-15T05:28:27.770Z,39.40
2019-03-15T05:30:53.743Z,39.30
2019-03-15T05:33:21.922Z,39.40
2019-03-15T05:35:48.731Z,39.50
2019-03-15T05:38:14.680Z,39.50
2019-03-15T05:40:40.746Z,39.50
2019-03-15T05:43:06.724Z,39.60
2019-03-15T05:45:32.687Z,39.70
2019-03-15T05:47:58.736Z,39.60
2019-03-15T05:50:24.810Z,39.60
2019-03-15T05:52:50.820Z,39.70
2019-03-15T05:55:16.861Z,39.60
2019-03-15T05:57:42.808Z,39.70
2019-03-15T06:00:08.873Z,39.70
2019-03-15T06:02:34.828Z,39.80
2019-03-15T06:05:00.758Z,40.30
2019-03-15T06:07:26.715Z,40.10
2019-03-15T06:09:52.670Z,40.30
2019-03-15T06:12:18.633Z,40.30
2019-03-15T06:14:46.867Z,40.30
2019-03-15T06:17:12.484Z,40.20
2019-03-15T06:19:38.534Z,40.20
2019-03-15T06:22:04.499Z,40.20
2019-03-15T06:24:30.550Z,40.10
2019-03-15T06:26:56.530Z,40.00
2019-03-15T06:29:22.515Z,39.80
2019-03-15T06:31:48.546Z,39.80
2019-03-15T06:34:14.509Z,39.70
2019-03-15T06:36:40.462Z,39.70
2019-03-15T06:39:06.557Z,40.30
2019-03-15T06:41:32.501Z,39.60
2019-03-15T06:43:58.433Z,39.50
2019-03-15T06:46:24.476Z,39.40
2019-03-15T06:48:50.440Z,39.30
2019-03-15T06:51:16.503Z,39.30
2019-03-15T06:53:42.456Z,39.00
2019-03-15T06:56:08.418Z,39.10
2019-03-15T06:58:34.403Z,39.00
2019-03-15T07:01:00.449Z,38.80
2019-03-15T07:03:26.417Z,38.90
2019-03-15T07:05:54.223Z,38.90
2019-03-15T07:08:20.551Z,38.90
2019-03-15T07:10:48.446Z,38.70
2019-03-15T07:13:14.397Z,38.60
2019-03-15T07:15:40.358Z,38.50
2019-03-15T07:18:06.359Z,38.40
2019-03-15T07:20:32.325Z,38.50
2019-03-15T07:22:58.379Z,38.50
2019-03-15T07:25:24.408Z,38.50
2019-03-15T07:27:50.360Z,38.50
2019-03-15T07:30:16.293Z,38.50
2019-03-15T07:32:42.299Z,38.40
2019-03-15T07:35:08.325Z,38.40
2019-03-15T07:37:34.412Z,38.40
2019-03-15T07:40:00.382Z,38.40
2019-03-15T07:42:26.415Z,38.40
2019-03-15T07:44:52.369Z,38.40
2019-03-15T07:47:18.325Z,38.40
2019-03-15T07:49:44.279Z,38.40
2019-03-15T07:52:10.653Z,38.90
2019-03-15T07:54:38.353Z,38.40
2019-03-15T07:57:04.573Z,38.30
2019-03-15T07:59:30.628Z,38.30
2019-03-15T08:01:56.831Z,38.20
2019-03-15T08:04:22.905Z,38.90
2019-03-15T08:06:48.929Z,38.10
2019-03-15T08:09:14.942Z,38.10
2019-03-15T08:11:40.963Z,38.00
2019-03-15T08:14:06.993Z,38.00
2019-03-15T08:16:35.381Z,38.00
2019-03-15T08:19:04.734Z,38.00
2019-03-15T08:21:29.307Z,37.90
2019-03-15T08:23:55.336Z,37.90
2019-03-15T08:26:21.287Z,37.90
2019-03-15T08:28:47.229Z,37.80
2019-03-15T08:31:13.209Z,37.80
2019-03-15T08:33:39.137Z,37.70
2019-03-15T08:36:05.084Z,37.80
2019-03-15T08:38:31.022Z,37.70
2019-03-15T08:40:57.018Z,37.60
2019-03-15T08:43:22.938Z,37.70
2019-03-15T08:45:48.872Z,37.60
2019-03-15T08:48:14.818Z,37.70
2019-03-15T08:50:40.782Z,37.60
2019-03-15T08:53:06.749Z,37.60
2019-03-15T08:55:32.708Z,37.50
2019-03-15T08:57:58.675Z,37.50
2019-03-15T09:00:24.632Z,37.50
2019-03-15T09:02:50.588Z,37.60
2019-03-15T09:05:16.545Z,37.70
2019-03-15T09:07:42.700Z,37.70
2019-03-15T09:10:21.998Z,37.90
2019-03-15T09:12:36.466Z,38.00
2019-03-15T09:15:02.425Z,38.30
2019-03-15T09:17:28.391Z,38.20
2019-03-15T09:19:54.347Z,38.30
2019-03-15T09:22:20.806Z,38.30
2019-03-15T09:24:46.782Z,38.20
2019-03-15T09:27:12.728Z,38.20
2019-03-15T09:29:38.699Z,38.20
2019-03-15T09:32:09.025Z,38.10
2019-03-15T09:34:32.802Z,38.10
2019-03-15T09:36:58.758Z,38.10
2019-03-15T09:39:24.833Z,38.10
2019-03-15T09:41:50.769Z,38.00
2019-03-15T09:44:16.735Z,38.50
2019-03-15T09:46:42.790Z,37.90
2019-03-15T09:49:08.714Z,38.10
2019-03-15T09:51:34.677Z,38.20
2019-03-15T09:54:00.611Z,38.10
2019-03-15T09:56:27.827Z,38.10
2019-03-15T09:58:54.096Z,38.90
2019-03-15T10:01:34.433Z,38.10
2019-03-15T10:03:47.902Z,38.10
2019-03-15T10:06:16.661Z,38.10
2019-03-15T10:08:41.776Z,38.10
2019-03-15T10:11:07.715Z,38.70
2019-03-15T10:13:33.681Z,38.20
2019-03-15T10:15:59.631Z,38.10
2019-03-15T10:18:25.625Z,38.20
2019-03-15T10:20:51.718Z,38.20
2019-03-15T10:23:17.768Z,38.20
2019-03-15T10:25:47.100Z,38.10
2019-03-15T10:28:11.545Z,38.10
2019-03-15T10:30:37.584Z,38.10
2019-03-15T10:33:03.585Z,38.10
2019-03-15T10:35:29.640Z,38.00
2019-03-15T10:37:55.598Z,38.10
2019-03-15T10:40:21.556Z,38.10
2019-03-15T10:42:47.528Z,38.20
2019-03-15T10:45:13.523Z,38.20
2019-03-15T10:47:42.164Z,38.10
2019-03-15T10:50:07.432Z,38.20
2019-03-15T10:52:33.481Z,38.30
2019-03-15T10:54:59.417Z,38.30
2019-03-15T10:57:26.043Z,38.30
2019-03-15T10:59:52.155Z,38.40
2019-03-15T11:02:21.071Z,38.50
2019-03-15T11:04:48.275Z,38.60
2019-03-15T11:07:14.872Z,38.50
2019-03-15T11:09:41.028Z,38.50
2019-03-15T11:12:06.986Z,38.60
2019-03-15T11:14:32.975Z,38.60
2019-03-15T11:16:59.020Z,38.60
2019-03-15T11:19:25.006Z,38.60
2019-03-15T11:21:51.007Z,38.60
2019-03-15T11:24:16.959Z,38.90
2019-03-15T11:26:42.935Z,38.60
2019-03-15T11:29:08.963Z,38.20
2019-03-15T11:31:34.930Z,38.60
2019-03-15T11:34:00.870Z,38.60
2019-03-15T11:36:26.853Z,38.60
2019-03-15T11:38:52.786Z,38.60
2019-03-15T11:41:18.757Z,38.60
2019-03-15T11:43:44.695Z,38.60
2019-03-15T11:46:10.641Z,38.60
2019-03-15T11:48:36.612Z,38.60
2019-03-15T11:51:02.636Z,38.60
2019-03-15T11:53:28.625Z,38.60
2019-03-15T11:55:54.697Z,38.60
2019-03-15T11:58:20.646Z,38.60
2019-03-15T12:00:46.574Z,38.60
2019-03-15T12:03:12.513Z,38.50
2019-03-15T12:05:38.451Z,38.60
2019-03-15T12:08:04.407Z,38.70
2019-03-15T12:10:30.357Z,38.90
2019-03-15T12:12:56.305Z,38.70
2019-03-15T12:15:22.248Z,38.80
2019-03-15T12:17:48.202Z,38.90
2019-03-15T12:20:14.255Z,38.80
2019-03-15T12:22:40.209Z,38.80
2019-03-15T12:25:06.159Z,38.90
2019-03-15T12:27:32.121Z,39.00
2019-03-15T12:29:58.068Z,39.00
2019-03-15T12:32:24.041Z,39.00
2019-03-15T12:34:50.063Z,38.80
2019-03-15T12:37:16.025Z,38.80
2019-03-15T12:39:42.067Z,38.60
2019-03-15T12:42:08.024Z,38.70
2019-03-15T12:44:33.976Z,38.60
2019-03-15T12:46:59.929Z,38.70
2019-03-15T12:49:25.909Z,38.70
2019-03-15T12:51:52.048Z,38.70
2019-03-15T12:54:18.003Z,38.80
2019-03-15T12:56:53.251Z,38.80
2019-03-15T12:59:11.841Z,38.80
2019-03-15T13:01:37.777Z,38.90
2019-03-15T13:04:03.720Z,39.10
2019-03-15T13:06:29.673Z,39.00
2019-03-15T13:08:55.631Z,39.10
2019-03-15T13:11:21.581Z,39.00
2019-03-15T13:13:50.639Z,39.10
2019-03-15T13:16:15.357Z,39.20
2019-03-15T13:18:41.319Z,39.20
2019-03-15T13:21:07.251Z,39.20
2019-03-15T13:23:33.205Z,39.20
2019-03-15T13:25:59.157Z,39.30
2019-03-15T13:28:25.132Z,39.40
2019-03-15T13:30:51.078Z,39.70
2019-03-15T13:33:20.922Z,39.80
2019-03-15T13:35:44.875Z,40.00
2019-03-15T13:38:10.819Z,40.00
2019-03-15T13:40:36.892Z,40.20
2019-03-15T13:43:02.829Z,40.10
2019-03-15T13:45:28.789Z,40.20
2019-03-15T13:47:54.727Z,40.20
2019-03-15T13:50:20.681Z,40.30
2019-03-15T13:52:46.634Z,40.40
2019-03-15T13:55:12.573Z,40.70
2019-03-15T13:57:38.507Z,40.70
2019-03-15T14:00:04.561Z,40.70
2019-03-15T14:02:30.520Z,40.60
2019-03-15T14:04:57.099Z,40.60
2019-03-15T14:07:23.163Z,40.50
2019-03-15T14:09:49.141Z,40.50
2019-03-15T14:12:15.800Z,40.40
2019-03-15T14:14:41.825Z,40.40
2019-03-15T14:17:07.770Z,40.80
2019-03-15T14:19:33.737Z,40.40
2019-03-15T14:21:59.703Z,41.50
2019-03-15T14:24:25.666Z,40.70
2019-03-15T14:26:51.590Z,40.70
2019-03-15T14:29:17.527Z,40.60
2019-03-15T14:31:43.492Z,40.60
2019-03-15T14:34:09.456Z,40.60
2019-03-15T14:36:35.408Z,40.60
2019-03-15T14:39:01.550Z,40.90
2019-03-15T14:41:27.632Z,40.80
2019-03-15T14:43:55.012Z,40.70
2019-03-15T14:46:21.816Z,40.60
2019-03-15T14:48:47.763Z,40.50
2019-03-15T14:51:13.876Z,40.50
2019-03-15T14:53:45.390Z,40.40
2019-03-15T14:56:11.844Z,40.10
2019-03-15T14:58:40.218Z,40.20
2019-03-15T15:01:13.930Z,40.40
2019-03-15T15:03:41.289Z,39.90
2019-03-15T15:06:07.799Z,39.90
2019-03-15T15:08:33.749Z,39.90
2019-03-15T15:11:03.166Z,39.90
2019-03-15T15:13:31.107Z,39.90
2019-03-15T15:15:57.111Z,40.50
2019-03-15T15:18:23.143Z,40.00
2019-03-15T15:20:49.120Z,39.70
2019-03-15T15:23:15.083Z,39.30
2019-03-15T15:25:41.444Z,39.30
2019-03-15T15:28:07.408Z,39.20
2019-03-15T15:30:33.462Z,39.20
2019-03-15T15:32:59.539Z,38.70
2019-03-15T15:35:25.512Z,38.60
2019-03-15T15:37:51.464Z,38.40
2019-03-15T15:40:17.474Z,38.20
2019-03-15T15:42:43.409Z,38.10
2019-03-15T15:45:09.355Z,37.90
2019-03-15T15:47:35.320Z,37.90
2019-03-15T15:50:01.269Z,37.70
2019-03-15T15:52:27.246Z,37.40
2019-03-15T15:54:53.272Z,37.50
2019-03-15T15:57:19.349Z,37.40
2019-03-15T15:59:45.315Z,37.50
2019-03-15T16:02:11.383Z,37.60
2019-03-15T16:04:37.314Z,37.50
2019-03-15T16:07:03.281Z,37.40
2019-03-15T16:09:29.259Z,37.40
2019-03-15T16:11:55.235Z,37.30
2019-03-15T16:14:21.175Z,37.30
2019-03-15T16:16:47.105Z,37.30
2019-03-15T16:19:13.048Z,37.20
2019-03-15T16:21:38.982Z,36.90
2019-03-15T16:24:04.965Z,36.90
2019-03-15T16:26:30.939Z,36.90
2019-03-15T16:28:56.870Z,36.90
2019-03-15T16:31:22.826Z,36.80
2019-03-15T16:33:48.763Z,36.70
2019-03-15T16:36:14.702Z,36.80
2019-03-15T16:38:41.145Z,36.80
2019-03-15T16:41:07.111Z,36.60
2019-03-15T16:43:33.057Z,36.60
2019-03-15T16:45:58.994Z,36.60
2019-03-15T16:48:24.949Z,36.70
2019-03-15T16:50:51.946Z,36.50
2019-03-15T16:53:18.087Z,36.40
2019-03-15T16:55:44.077Z,36.40
2019-03-15T16:58:10.562Z,36.30
2019-03-15T17:00:36.516Z,36.50
2019-03-15T17:03:02.464Z,36.60
2019-03-15T17:05:28.424Z,36.50
2019-03-15T17:07:54.376Z,36.50
2019-03-15T17:10:20.338Z,36.50
2019-03-15T17:12:46.385Z,36.60
2019-03-15T17:15:12.350Z,36.80
2019-03-15T17:17:38.416Z,37.00
2019-03-15T17:20:04.468Z,37.00
2019-03-15T17:22:30.437Z,37.10
2019-03-15T17:24:56.404Z,37.30
2019-03-15T17:27:22.369Z,37.30
2019-03-15T17:29:48.319Z,37.50
2019-03-15T17:32:14.274Z,37.30
2019-03-15T17:34:40.238Z,37.30
2019-03-15T17:37:07.083Z,37.30
2019-03-15T17:39:33.300Z,37.30
2019-03-15T17:41:59.453Z,37.30
2019-03-15T17:44:25.478Z,37.40
2019-03-15T17:46:51.505Z,37.50
2019-03-15T17:49:17.432Z,37.50
2019-03-15T17:51:43.389Z,37.40
2019-03-15T17:54:09.425Z,37.60
2019-03-15T17:56:35.393Z,37.70
2019-03-15T17:59:11.881Z,37.80
2019-03-15T18:01:29.259Z,38.00
2019-03-15T18:03:55.312Z,38.10
2019-03-15T18:06:21.346Z,37.90
2019-03-15T18:08:47.302Z,37.70
2019-03-15T18:11:13.240Z,37.90
2019-03-15T18:13:39.201Z,37.80
2019-03-15T18:16:05.162Z,37.80
2019-03-15T18:18:31.312Z,37.80
2019-03-15T18:20:57.580Z,38.10
2019-03-15T18:23:23.584Z,38.10
2019-03-15T18:25:49.529Z,38.00
2019-03-15T18:28:17.896Z,38.00
2019-03-15T18:30:43.829Z,38.00
2019-03-15T18:33:09.792Z,37.90
2019-03-15T18:35:35.762Z,37.80
2019-03-15T18:38:01.712Z,37.70
2019-03-15T18:40:27.675Z,37.70
2019-03-15T18:42:53.617Z,37.70
2019-03-15T18:45:19.573Z,37.80
2019-03-15T18:47:46.229Z,37.80
2019-03-15T18:50:14.532Z,37.90
2019-03-15T18:52:42.800Z,37.80
2019-03-15T18:55:08.812Z,37.60
2019-03-15T18:57:37.303Z,37.50
2019-03-15T19:00:03.238Z,37.70
2019-03-15T19:02:29.196Z,37.50
2019-03-15T19:04:55.139Z,37.40
2019-03-15T19:07:21.089Z,37.20
2019-03-15T19:09:47.037Z,37.10
2019-03-15T19:12:12.991Z,37.20
2019-03-15T19:14:38.948Z,37.00
2019-03-15T19:17:04.877Z,36.90
2019-03-15T19:19:30.834Z,37.00
2019-03-15T19:21:56.787Z,37.10
2019-03-15T19:24:22.734Z,37.00
2019-03-15T19:26:48.692Z,37.10
2019-03-15T19:29:14.651Z,37.20
2019-03-15T19:31:40.614Z,37.60
2019-03-15T19:34:06.561Z,37.70
2019-03-15T19:36:32.503Z,37.60
2019-03-15T19:38:58.452Z,37.60
2019-03-15T19:41:24.421Z,37.60
2019-03-15T19:43:50.378Z,37.70
2019-03-15T19:46:16.333Z,37.60
2019-03-15T19:48:42.411Z,37.60
2019-03-15T19:51:08.445Z,37.70
2019-03-15T19:53:34.404Z,37.60
2019-03-15T19:56:00.391Z,37.50
2019-03-15T19:58:27.996Z,37.30
2019-03-15T20:00:53.953Z,37.30
2019-03-15T20:03:19.926Z,37.20
2019-03-15T20:05:46.002Z,37.30
2019-03-15T20:08:14.831Z,37.40
2019-03-15T20:10:40.912Z,37.60
2019-03-15T20:13:06.954Z,37.90
2019-03-15T20:15:32.931Z,37.60
2019-03-15T20:17:58.889Z,37.50
2019-03-15T20:20:24.851Z,37.40
2019-03-15T20:22:50.798Z,37.20
2019-03-15T20:25:16.736Z,37.20
2019-03-15T20:27:42.702Z,37.00
2019-03-15T20:30:20.564Z,37.10
2019-03-15T20:32:36.518Z,37.00
2019-03-15T20:35:02.509Z,37.00
2019-03-15T20:37:28.459Z,37.00
2019-03-15T20:39:54.393Z,37.10
2019-03-15T20:42:20.345Z,37.20
2019-03-15T20:44:46.288Z,37.40
2019-03-15T20:47:12.216Z,37.30
2019-03-15T20:49:38.182Z,37.20
2019-03-15T20:52:04.114Z,37.30
2019-03-15T20:54:30.107Z,37.60
2019-03-15T20:56:56.175Z,37.70
2019-03-15T20:59:22.273Z,37.90
2019-03-15T21:01:49.164Z,38.20
2019-03-15T21:04:15.367Z,38.40
2019-03-15T21:06:41.347Z,38.50
2019-03-15T21:09:07.306Z,38.90
2019-03-15T21:11:33.250Z,39.10
2019-03-15T21:13:59.204Z,39.10
2019-03-15T21:16:25.258Z,39.20
2019-03-15T21:18:51.215Z,39.70
2019-03-15T21:21:17.296Z,39.20
2019-03-15T21:23:43.232Z,40.00
2019-03-15T21:26:09.210Z,40.00
2019-03-15T21:28:35.232Z,39.70
2019-03-15T21:31:01.190Z,40.00
2019-03-15T21:33:27.226Z,40.10
2019-03-15T21:35:53.164Z,40.00
2019-03-15T21:38:19.228Z,40.30
2019-03-15T21:40:45.176Z,40.10
2019-03-15T21:43:11.228Z,40.20
2019-03-15T21:45:37.190Z,40.20
2019-03-15T21:48:03.241Z,40.10
2019-03-15T21:50:29.313Z,40.00
2019-03-15T21:52:55.275Z,40.00
2019-03-15T21:55:21.343Z,40.10
2019-03-15T21:57:47.404Z,40.20
2019-03-15T22:00:13.378Z,40.40
2019-03-15T22:02:39.350Z,40.50
2019-03-15T22:05:05.299Z,40.90
2019-03-15T22:07:31.284Z,41.10
2019-03-15T22:09:57.218Z,41.20
2019-03-15T22:12:23.195Z,41.30
2019-03-15T22:14:49.149Z,41.40
2019-03-15T22:17:15.224Z,41.30
2019-03-15T22:19:41.263Z,41.30
2019-03-15T22:22:07.277Z,41.30
2019-03-15T22:24:33.374Z,41.30
2019-03-15T22:26:59.356Z,41.20
2019-03-15T22:29:25.424Z,41.30
2019-03-15T22:32:02.232Z,41.20
2019-03-15T22:34:28.182Z,41.10
2019-03-15T22:36:54.134Z,41.10
2019-03-15T22:39:20.088Z,40.70
2019-03-15T22:41:46.020Z,41.40
2019-03-15T22:44:11.968Z,41.60
2019-03-15T22:46:37.906Z,41.60
2019-03-15T22:49:03.870Z,41.70
2019-03-15T22:51:29.816Z,41.70
2019-03-15T22:53:55.752Z,41.70
2019-03-15T22:56:21.710Z,41.50
2019-03-15T22:58:47.672Z,41.60
2019-03-15T23:01:13.610Z,41.50
2019-03-15T23:03:39.894Z,41.40
2019-03-15T23:06:05.842Z,41.50
2019-03-15T23:08:31.798Z,41.50
2019-03-15T23:10:57.766Z,41.40
2019-03-15T23:13:23.805Z,41.50
2019-03-15T23:15:49.763Z,41.20
2019-03-15T23:18:16.149Z,41.00
2019-03-15T23:20:42.094Z,41.10
2019-03-15T23:23:08.068Z,40.90
2019-03-15T23:25:34.133Z,41.00
2019-03-15T23:28:00.179Z,41.00
2019-03-15T23:30:26.996Z,41.10
2019-03-15T23:32:52.985Z,41.10
2019-03-15T23:35:18.936Z,41.30
2019-03-15T23:37:44.892Z,41.40
2019-03-15T23:40:10.922Z,41.40
2019-03-15T23:42:37.011Z,42.00
2019-03-15T23:45:02.970Z,41.40
2019-03-15T23:47:28.921Z,41.40
2019-03-15T23:49:54.924Z,41.30
2019-03-15T23:52:20.979Z,41.30
2019-03-15T23:54:46.993Z,41.30
2019-03-15T23:57:12.921Z,41.20
2019-03-15T23:59:38.873Z,41.20
